This is the latest recevied weather packets stored in our database for station/object KF7SOJ. If no packets are shown the sender has not sent any weather packets the latest 10 day(s).
| Time | Temp. | Humidity | Pressure | Rain* | Wind** | Luminosity | Snow |
|---|---|---|---|---|---|---|---|
| 1777865254 | 16.67° C | 29% | 924.1 hPa | 0 mm | - | 0 W/m² | - |
| 1777864648 | 16.67° C | 29% | 924.1 hPa | 0 mm | - | 0 W/m² | - |
| 1777864041 | 17.22° C | 29% | 923.8 hPa | 0 mm | - | 0 W/m² | - |
| 1777863739 | 17.22° C | 30% | 924.1 hPa | 0 mm | - | 0 W/m² | - |
| 1777847673 | 25.56° C | 19% | 924.9 hPa | 0 mm | - | 676 W/m² | - |
| 1777845856 | 24.44° C | 22% | 925.3 hPa | 0 mm | - | 855 W/m² | - |
| 1777844040 | 24.44° C | 22% | 925.9 hPa | 0 mm | - | 831 W/m² | - |
| 1777843131 | 24.44° C | 22% | 926.1 hPa | 0 mm | - | 862 W/m² | - |
| 1777842828 | 24.44° C | 22% | 926.5 hPa | 0 mm | - | 862 W/m² | - |
| 1777842221 | 23.89° C | 22% | 926.5 hPa | 0 mm | - | 895 W/m² | - |
| 1777841612 | 23.89° C | 22% | 927 hPa | 0 mm | - | 895 W/m² | - |
| 1777840703 | 22.78° C | 25% | 927 hPa | 0 mm | - | 872 W/m² | - |
| 1777840097 | 23.33° C | 24% | 927.1 hPa | 0 mm | - | 909 W/m² | - |
| 1777839796 | 23.33° C | 23% | 927.4 hPa | 0 mm | - | 915 W/m² | - |
| 1777839494 | 23.89° C | 22% | 927.3 hPa | 0 mm | - | 927 W/m² | - |
| 1777839190 | 23.33° C | 24% | 927.5 hPa | 0 mm | - | 934 W/m² | - |
| 1777838888 | 22.78° C | 25% | 927.5 hPa | 0 mm | - | 935 W/m² | - |
| 1777836459 | 22.22° C | 25% | 928.1 hPa | 0 mm | - | 977 W/m² | - |
| 1777836154 | 22.22° C | 26% | 928.5 hPa | 0 mm | - | 961 W/m² | - |
| 1777835851 | 21.67° C | 27% | 928.4 hPa | 0 mm | - | 965 W/m² | - |
| 1777835245 | 21.67° C | 28% | 928.6 hPa | 0 mm | - | 964 W/m² | - |
| 1777833120 | 21.11° C | 28% | 929.2 hPa | 0 mm | - | 966 W/m² | - |
| 1777832818 | 21.67° C | 29% | 929.3 hPa | 0 mm | - | 948 W/m² | - |
| 1777832516 | 21.11° C | 28% | 929.4 hPa | 0 mm | - | 939 W/m² | - |
| 1777831606 | 21.67° C | 33% | 929.5 hPa | 0 mm | - | 677 W/m² | - |
* Rain latest hour (hover to see other rain measurements)
** Current wind speed in m/s (hover to see current wind gust speed)